createdAt,value
2018-06-27T00:02:00.757Z,5.10
2018-06-27T00:04:38.261Z,6.03
2018-06-27T00:07:14.676Z,4.70
2018-06-27T00:09:53.829Z,4.97
2018-06-27T00:12:31.786Z,5.03
2018-06-27T00:15:08.029Z,4.80
2018-06-27T00:17:44.863Z,4.80
2018-06-27T00:20:21.013Z,4.60
2018-06-27T00:22:57.866Z,4.87
2018-06-27T00:25:36.081Z,4.93
2018-06-27T00:28:12.174Z,4.70
2018-06-27T00:30:48.614Z,4.90
2018-06-27T00:33:25.094Z,4.93
2018-06-27T00:36:01.120Z,4.90
2018-06-27T00:38:37.429Z,5.07
2018-06-27T00:41:14.354Z,5.10
2018-06-27T00:43:50.971Z,5.13
2018-06-27T00:46:27.318Z,5.20
2018-06-27T00:49:05.216Z,4.90
2018-06-27T00:51:41.937Z,5.47
2018-06-27T00:54:18.391Z,4.90
2018-06-27T00:56:54.919Z,4.90
2018-06-27T00:59:31.121Z,4.97
2018-06-27T01:02:07.460Z,4.97
2018-06-27T01:04:45.849Z,4.90
2018-06-27T01:07:22.128Z,5.67
2018-06-27T01:09:58.438Z,4.30
2018-06-27T01:12:36.205Z,4.40
2018-06-27T01:15:12.445Z,4.40
2018-06-27T01:17:56.063Z,4.50
2018-06-27T01:20:32.111Z,4.30
2018-06-27T01:23:09.061Z,4.20
2018-06-27T01:25:48.337Z,4.23
2018-06-27T01:28:24.739Z,3.57
2018-06-27T01:31:01.416Z,3.77
2018-06-27T01:33:37.940Z,4.00
2018-06-27T01:36:14.235Z,4.30
2018-06-27T01:38:50.406Z,4.33
2018-06-27T01:41:30.207Z,4.57
2018-06-27T01:44:06.731Z,4.07
2018-06-27T01:46:42.905Z,3.93
2018-06-27T01:49:19.415Z,4.60
2018-06-27T01:51:55.343Z,4.43
2018-06-27T01:54:31.771Z,4.27
2018-06-27T01:57:10.494Z,4.27
2018-06-27T01:59:47.299Z,4.20
2018-06-27T02:02:23.544Z,4.27
2018-06-27T02:05:00.189Z,3.97
2018-06-27T02:07:36.435Z,4.10
2018-06-27T02:10:12.642Z,4.30
2018-06-27T02:12:51.158Z,4.27
2018-06-27T02:15:28.096Z,4.30
2018-06-27T02:18:05.321Z,3.80
2018-06-27T02:20:41.731Z,3.67
2018-06-27T02:23:17.970Z,3.37
2018-06-27T02:25:54.354Z,4.13
2018-06-27T02:28:31.659Z,4.03
2018-06-27T02:31:08.763Z,3.90
2018-06-27T02:33:44.628Z,4.00
2018-06-27T02:36:21.351Z,4.60
2018-06-27T02:38:58.118Z,4.03
2018-06-27T02:41:35.507Z,4.10
2018-06-27T02:44:13.476Z,4.23
2018-06-27T02:46:49.676Z,4.17
2018-06-27T02:49:25.830Z,4.23
2018-06-27T02:52:02.456Z,4.33
2018-06-27T02:54:39.478Z,6.20
2018-06-27T02:57:19.249Z,4.30
2018-06-27T02:59:58.090Z,4.27
2018-06-27T03:02:36.835Z,4.07
2018-06-27T03:05:14.663Z,4.10
2018-06-27T03:07:51.042Z,4.03
2018-06-27T03:10:27.529Z,4.00
2018-06-27T03:13:03.902Z,4.83
2018-06-27T03:15:40.931Z,5.93
2018-06-27T03:18:19.478Z,4.00
2018-06-27T03:20:56.150Z,4.20
2018-06-27T03:23:32.225Z,4.00
2018-06-27T03:26:10.159Z,5.20
2018-06-27T03:28:46.421Z,4.07
2018-06-27T03:31:22.420Z,3.60
2018-06-27T03:34:00.575Z,3.50
2018-06-27T03:36:36.873Z,3.43
2018-06-27T03:39:12.957Z,3.40
2018-06-27T03:41:49.448Z,3.33
2018-06-27T03:44:29.193Z,5.03
2018-06-27T03:47:05.496Z,3.23
2018-06-27T03:49:44.282Z,4.10
2018-06-27T03:52:21.557Z,3.80
2018-06-27T03:54:57.809Z,4.37
2018-06-27T03:57:34.200Z,3.90
2018-06-27T04:00:10.464Z,3.23
2018-06-27T04:02:46.859Z,3.03
2018-06-27T04:05:25.783Z,3.80
2018-06-27T04:08:02.273Z,3.67
2018-06-27T04:10:38.315Z,3.87
2018-06-27T04:13:15.373Z,3.50
2018-06-27T04:15:51.665Z,3.87
2018-06-27T04:18:27.708Z,3.57
2018-06-27T04:21:06.742Z,4.43
2018-06-27T04:23:43.202Z,3.97
2018-06-27T04:26:19.218Z,4.90
2018-06-27T04:28:57.548Z,4.07
2018-06-27T04:31:34.060Z,4.40
2018-06-27T04:34:10.294Z,4.13
2018-06-27T04:36:50.208Z,3.80
2018-06-27T04:39:28.208Z,5.37
2018-06-27T04:42:04.674Z,3.20
2018-06-27T04:44:43.829Z,4.00
2018-06-27T04:47:20.183Z,3.30
2018-06-27T04:49:56.364Z,3.30
2018-06-27T04:52:37.769Z,4.03
2018-06-27T04:55:14.322Z,3.40
2018-06-27T04:57:52.224Z,3.30
2018-06-27T05:00:31.133Z,3.40
2018-06-27T05:03:14.458Z,4.40
2018-06-27T05:05:52.720Z,3.87
2018-06-27T05:08:35.133Z,3.90
2018-06-27T05:11:12.088Z,4.20
2018-06-27T05:13:52.371Z,3.90
2018-06-27T05:16:34.739Z,4.30
2018-06-27T05:21:57.595Z,4.53
2018-06-27T05:24:34.419Z,3.87
2018-06-27T05:27:18.147Z,4.47
2018-06-27T05:29:58.502Z,4.40
2018-06-27T05:32:35.439Z,4.53
2018-06-27T05:35:17.121Z,4.53
2018-06-27T05:37:56.236Z,4.30
2018-06-27T05:40:39.085Z,4.13
2018-06-27T05:43:17.278Z,4.50
2018-06-27T05:45:57.323Z,4.17
2018-06-27T05:48:39.219Z,4.70
2018-06-27T05:51:18.147Z,4.53
2018-06-27T05:53:57.267Z,4.10
2018-06-27T05:56:39.257Z,4.57
2018-06-27T05:59:19.290Z,4.47
2018-06-27T06:02:02.157Z,4.40
2018-06-27T06:04:40.110Z,4.73
2018-06-27T06:07:21.461Z,4.73
2018-06-27T06:10:01.108Z,4.97
2018-06-27T06:12:40.929Z,4.93
2018-06-27T06:15:24.015Z,3.97
2018-06-27T06:18:04.343Z,4.80
2018-06-27T06:20:42.775Z,4.83
2018-06-27T06:23:22.641Z,4.67
2018-06-27T06:26:03.614Z,4.90
2018-06-27T06:28:42.989Z,4.73
2018-06-27T06:31:24.715Z,4.70
2018-06-27T06:34:04.572Z,4.83
2018-06-27T06:37:47.043Z,4.80
2018-06-27T06:40:23.956Z,4.80
2018-06-27T06:43:06.447Z,4.93
2018-06-27T06:45:46.108Z,4.57
2018-06-27T06:48:25.803Z,4.70
2018-06-27T06:51:05.198Z,4.63
2018-06-27T06:53:44.457Z,4.80
2018-06-27T06:56:25.438Z,4.13
2018-06-27T06:59:05.056Z,4.27
2018-06-27T07:01:54.362Z,4.83
2018-06-27T07:04:30.785Z,5.37
2018-06-27T07:07:08.446Z,5.20
2018-06-27T07:09:51.644Z,5.20
2018-06-27T07:12:28.679Z,4.63
2018-06-27T07:15:11.561Z,4.70
2018-06-27T07:17:55.603Z,4.63
2018-06-27T07:20:39.844Z,4.40
2018-06-27T07:23:20.092Z,4.10
2018-06-27T07:26:00.156Z,4.67
2018-06-27T07:28:47.984Z,4.77
2018-06-27T07:31:28.961Z,4.33
2018-06-27T07:34:10.329Z,4.53
2018-06-27T07:36:49.716Z,5.00
2018-06-27T07:39:31.593Z,4.20
2018-06-27T07:42:13.778Z,5.10
2018-06-27T07:44:53.124Z,5.27
2018-06-27T07:47:38.864Z,5.00
2018-06-27T07:50:17.015Z,5.03
2018-06-27T07:52:54.278Z,5.53
2018-06-27T07:55:35.801Z,4.77
2018-06-27T07:58:15.042Z,4.70
2018-06-27T08:00:58.459Z,4.90
2018-06-27T08:03:39.619Z,4.63
2018-06-27T08:06:17.729Z,5.27
2018-06-27T08:08:59.092Z,4.40
2018-06-27T08:11:35.650Z,4.67
2018-06-27T08:14:25.086Z,4.70
2018-06-27T08:17:01.479Z,4.73
2018-06-27T08:19:40.129Z,4.10
2018-06-27T08:22:16.308Z,4.50
2018-06-27T08:24:57.423Z,4.07
2018-06-27T08:27:43.759Z,4.20
2018-06-27T08:30:21.526Z,4.43
2018-06-27T08:33:02.324Z,4.87
2018-06-27T08:35:39.285Z,4.17
2018-06-27T08:38:24.961Z,4.90
2018-06-27T08:41:03.714Z,4.67
2018-06-27T08:43:40.251Z,4.77
2018-06-27T08:46:24.094Z,4.70
2018-06-27T08:49:00.354Z,4.70
2018-06-27T08:51:40.489Z,5.37
2018-06-27T08:54:22.989Z,5.17
2018-06-27T08:57:00.702Z,5.40
2018-06-27T08:59:44.506Z,5.40
2018-06-27T09:02:21.048Z,4.93
2018-06-27T09:05:00.955Z,5.03
2018-06-27T09:07:47.215Z,4.83
2018-06-27T09:10:25.344Z,5.20
2018-06-27T09:13:13.857Z,4.10
2018-06-27T09:15:59.815Z,3.90
2018-06-27T09:18:50.987Z,3.90
2018-06-27T09:21:27.246Z,4.10
2018-06-27T09:24:22.776Z,3.40
2018-06-27T09:27:05.336Z,3.97
2018-06-27T09:32:48.347Z,2.90
2018-06-27T09:35:28.202Z,3.00
2018-06-27T09:38:08.267Z,3.30
2018-06-27T09:40:47.777Z,3.47
2018-06-27T09:43:27.741Z,3.57
2018-06-27T09:46:13.777Z,3.83
2018-06-27T09:48:50.286Z,3.60
2018-06-27T09:51:27.126Z,4.10
2018-06-27T09:54:06.990Z,3.60
2018-06-27T09:56:54.625Z,4.30
2018-06-27T09:59:33.722Z,3.77
2018-06-27T10:02:16.198Z,3.77
2018-06-27T10:04:56.872Z,3.83
2018-06-27T10:07:35.367Z,3.97
2018-06-27T10:10:20.862Z,3.40
2018-06-27T10:13:12.862Z,3.43
2018-06-27T10:15:53.934Z,3.27
2018-06-27T10:18:37.444Z,4.13
2018-06-27T10:21:16.955Z,3.93
2018-06-27T10:23:59.295Z,4.10
2018-06-27T10:26:40.052Z,4.00
2018-06-27T10:29:19.690Z,3.77
2018-06-27T10:32:08.479Z,3.23
2018-06-27T10:37:31.945Z,4.03
2018-06-27T10:40:16.042Z,3.77
2018-06-27T10:42:56.705Z,3.57
2018-06-27T10:45:35.877Z,3.70
2018-06-27T10:48:16.222Z,4.27
2018-06-27T10:50:55.725Z,3.30
2018-06-27T10:53:35.605Z,4.00
2018-06-27T10:56:15.551Z,3.80
2018-06-27T10:58:55.658Z,3.60
2018-06-27T11:04:37.588Z,3.90
2018-06-27T11:07:18.142Z,3.10
2018-06-27T11:09:58.853Z,3.37
2018-06-27T11:12:54.627Z,3.17
2018-06-27T11:16:00.495Z,4.00
2018-06-27T11:18:43.134Z,3.50
2018-06-27T11:24:19.242Z,3.87
2018-06-27T11:26:58.872Z,3.70
2018-06-27T11:29:42.500Z,3.20
2018-06-27T11:32:18.768Z,3.80
2018-06-27T11:35:05.723Z,3.73
2018-06-27T11:37:45.926Z,4.10
2018-06-27T11:40:24.851Z,3.83
2018-06-27T11:43:05.954Z,3.37
2018-06-27T11:46:04.032Z,3.30
2018-06-27T11:51:28.519Z,3.30
2018-06-27T11:54:07.195Z,3.40
2018-06-27T11:56:48.359Z,3.60
2018-06-27T11:59:26.229Z,3.20
2018-06-27T12:02:03.621Z,3.23
2018-06-27T12:04:46.985Z,3.17
2018-06-27T12:07:27.572Z,3.50
2018-06-27T12:10:07.787Z,3.90
2018-06-27T12:12:53.598Z,3.43
2018-06-27T12:15:31.033Z,3.33
2018-06-27T12:18:13.503Z,3.37
2018-06-27T12:20:53.809Z,3.00
2018-06-27T12:23:32.378Z,3.60
2018-06-27T12:26:15.316Z,2.90
2018-06-27T12:28:55.672Z,2.93
2018-06-27T12:34:31.808Z,3.13
2018-06-27T12:37:11.527Z,3.20
2018-06-27T12:39:52.681Z,3.30
2018-06-27T12:42:32.631Z,3.03
2018-06-27T12:45:17.891Z,3.30
2018-06-27T12:47:57.403Z,3.00
2018-06-27T12:50:45.611Z,3.30
2018-06-27T12:53:25.689Z,2.87
2018-06-27T12:56:06.273Z,3.10
2018-06-27T12:58:50.810Z,2.63
2018-06-27T13:01:32.462Z,2.70
2018-06-27T13:04:12.541Z,3.47
2018-06-27T13:06:50.034Z,3.40
2018-06-27T13:09:33.353Z,3.30
2018-06-27T13:12:19.342Z,3.23
2018-06-27T13:14:55.783Z,3.00
2018-06-27T13:17:36.075Z,3.23
2018-06-27T13:20:23.843Z,2.90
2018-06-27T13:25:57.172Z,2.80
2018-06-27T13:28:35.619Z,3.10
2018-06-27T13:31:13.893Z,3.37
2018-06-27T13:34:07.094Z,3.00
2018-06-27T13:36:43.450Z,3.13
2018-06-27T13:39:19.716Z,3.03
2018-06-27T13:42:03.543Z,2.67
2018-06-27T13:45:00.861Z,3.10
2018-06-27T13:52:20.897Z,3.57
2018-06-27T13:55:00.662Z,2.90
2018-06-27T13:57:37.754Z,3.30
2018-06-27T14:00:52.959Z,2.97
2018-06-27T14:03:42.757Z,3.03
2018-06-27T14:06:29.009Z,2.80
2018-06-27T14:09:24.976Z,2.70
2018-06-27T14:12:04.340Z,2.97
2018-06-27T14:14:55.258Z,3.10
2018-06-27T14:17:39.178Z,3.40
2018-06-27T15:32:28.183Z,3.60
2018-06-27T15:35:08.859Z,3.30
2018-06-27T15:37:49.427Z,3.40
2018-06-27T15:40:35.810Z,3.57
2018-06-27T15:43:13.556Z,3.23
2018-06-27T15:45:57.467Z,3.20
2018-06-27T15:48:35.374Z,2.97
2018-06-27T15:51:12.390Z,3.30
2018-06-27T16:31:14.063Z,3.27
2018-06-27T16:33:54.782Z,3.00
2018-06-27T16:36:39.347Z,2.90
2018-06-27T16:39:16.323Z,3.00
2018-06-27T16:41:59.548Z,2.67
2018-06-27T16:44:40.152Z,3.20
2018-06-27T16:47:17.410Z,3.08
2018-06-27T16:49:57.349Z,2.72
2018-06-27T16:52:37.950Z,3.10
2018-06-27T16:55:17.524Z,3.33
2018-06-27T16:58:00.844Z,3.20
2018-06-27T17:00:39.609Z,2.80
2018-06-27T17:03:19.266Z,3.60
2018-06-27T17:06:01.070Z,3.15
2018-06-27T17:08:41.072Z,3.22
2018-06-27T17:11:22.219Z,3.45
2018-06-27T17:14:02.181Z,3.50
2018-06-27T17:16:43.593Z,3.10
2018-06-27T17:19:21.320Z,3.05
2018-06-27T17:22:01.774Z,3.55
2018-06-27T17:24:41.990Z,3.70
2018-06-27T17:27:23.988Z,3.30
2018-06-27T17:30:02.058Z,3.20
2018-06-27T17:32:42.477Z,3.47
2018-06-27T17:35:22.346Z,3.45
2018-06-27T17:38:01.998Z,3.87
2018-06-27T17:40:41.316Z,3.00
2018-06-27T17:43:17.755Z,3.05
2018-06-27T17:45:57.347Z,3.20
2018-06-27T17:48:37.492Z,2.87
2018-06-27T17:51:14.225Z,3.30
2018-06-27T17:53:51.284Z,3.40
2018-06-27T17:56:28.669Z,3.42
2018-06-27T17:59:06.041Z,3.05
2018-06-27T18:01:46.291Z,3.02
2018-06-27T18:04:25.834Z,3.00
2018-06-27T18:07:05.240Z,2.92
2018-06-27T18:09:45.007Z,3.10
2018-06-27T18:12:21.750Z,3.40
2018-06-27T18:15:01.159Z,3.75
2018-06-27T18:17:37.056Z,3.33
2018-06-27T18:20:13.759Z,3.00
2018-06-27T18:22:50.529Z,3.67
2018-06-27T18:25:31.108Z,4.10
2018-06-27T18:28:11.233Z,4.10
2018-06-27T18:30:49.958Z,2.67
2018-06-27T18:33:29.727Z,3.03
2018-06-27T18:36:09.652Z,3.43
2018-06-27T18:38:49.480Z,3.00
2018-06-27T18:46:45.008Z,3.50
2018-06-27T18:49:29.706Z,3.03
2018-06-27T18:52:11.996Z,3.77
2018-06-27T18:54:52.715Z,3.40
2018-06-27T18:57:33.874Z,3.60
2018-06-27T19:00:14.138Z,3.33
2018-06-27T19:02:53.894Z,3.60
2018-06-27T19:05:35.143Z,3.57
2018-06-27T19:08:15.897Z,3.60
2018-06-27T19:10:56.902Z,3.40
2018-06-27T19:13:37.850Z,3.77
2018-06-27T19:16:17.471Z,3.70
2018-06-27T19:18:56.921Z,3.83
2018-06-27T19:21:36.290Z,4.27
2018-06-27T19:24:16.468Z,4.17
2018-06-27T19:26:59.759Z,4.63
2018-06-27T19:29:38.202Z,4.20
2018-06-27T19:32:19.408Z,3.83
2018-06-27T19:34:58.973Z,3.83
2018-06-27T19:37:37.926Z,4.03
2018-06-27T19:40:17.158Z,3.50
2018-06-27T19:42:56.840Z,3.33
2018-06-27T19:45:33.406Z,3.70
2018-06-27T19:48:13.414Z,3.43
2018-06-27T19:50:57.735Z,3.40
2018-06-27T19:53:37.764Z,3.77
2018-06-27T19:56:17.335Z,3.33
2018-06-27T19:58:53.692Z,3.77
2018-06-27T20:01:30.050Z,4.40
2018-06-27T20:04:06.119Z,4.63
2018-06-27T20:06:42.450Z,4.17
2018-06-27T20:09:23.984Z,4.03
2018-06-27T20:12:03.986Z,4.67
2018-06-27T20:14:44.565Z,5.90
2018-06-27T20:17:23.251Z,5.53
2018-06-27T20:20:02.451Z,4.90
2018-06-27T20:22:43.841Z,5.47
2018-06-27T20:25:22.063Z,4.43
2018-06-27T20:28:00.332Z,4.50
2018-06-27T20:30:36.991Z,4.00
2018-06-27T20:33:13.123Z,4.00
2018-06-27T20:35:49.526Z,3.90
2018-06-27T20:38:25.810Z,3.70
2018-06-27T20:41:02.018Z,3.73
2018-06-27T20:43:38.327Z,4.17
2018-06-27T20:46:14.671Z,4.40
2018-06-27T20:48:51.507Z,4.37
2018-06-27T20:51:29.317Z,4.87
2018-06-27T20:54:08.160Z,3.80
2018-06-27T20:56:44.525Z,4.50
2018-06-27T20:59:21.076Z,4.17
2018-06-27T21:01:57.302Z,4.47
2018-06-27T21:04:34.562Z,4.20
2018-06-27T21:07:10.911Z,5.00
2018-06-27T21:09:46.971Z,4.77
2018-06-27T21:12:23.304Z,4.43
2018-06-27T21:14:59.543Z,4.30
2018-06-27T21:17:35.548Z,4.03
2018-06-27T21:20:11.841Z,5.17
2018-06-27T21:22:50.056Z,5.80
2018-06-27T21:25:26.782Z,4.60
2018-06-27T21:28:03.152Z,3.80
2018-06-27T21:30:40.716Z,4.70
2018-06-27T21:33:16.729Z,5.03
2018-06-27T21:35:53.039Z,5.90
2018-06-27T21:38:34.175Z,4.33
2018-06-27T21:41:14.565Z,4.60
2018-06-27T21:43:53.058Z,3.80
2018-06-27T21:46:29.644Z,3.90
2018-06-27T21:49:07.193Z,4.13
2018-06-27T21:51:43.278Z,3.93
2018-06-27T21:54:20.289Z,4.00
2018-06-27T21:56:56.628Z,3.87
2018-06-27T21:59:32.919Z,3.80
2018-06-27T22:02:09.987Z,4.37
2018-06-27T22:04:46.384Z,6.47
2018-06-27T22:07:22.403Z,3.97
2018-06-27T22:09:58.995Z,4.10
2018-06-27T22:12:36.046Z,4.03
2018-06-27T22:15:12.723Z,4.10
2018-06-27T22:17:48.556Z,3.90
2018-06-27T22:20:24.813Z,4.07
2018-06-27T22:23:01.095Z,4.27
2018-06-27T22:25:37.292Z,4.20
2018-06-27T22:28:13.881Z,4.40
2018-06-27T22:30:50.124Z,4.07
2018-06-27T22:33:27.510Z,5.20
2018-06-27T22:36:03.118Z,4.50
2018-06-27T22:38:39.140Z,4.43
2018-06-27T22:41:15.741Z,4.03
2018-06-27T22:43:51.828Z,3.73
2018-06-27T22:46:27.792Z,4.30
2018-06-27T22:49:05.162Z,4.67
2018-06-27T22:51:41.335Z,4.40
2018-06-27T22:54:17.998Z,4.13
2018-06-27T22:56:54.622Z,4.17
2018-06-27T22:59:30.774Z,4.30
2018-06-27T23:02:06.323Z,4.57
2018-06-27T23:04:42.379Z,4.13
2018-06-27T23:07:18.734Z,4.30
2018-06-27T23:09:55.131Z,4.17
2018-06-27T23:12:31.153Z,4.33
2018-06-27T23:15:08.127Z,4.40
2018-06-27T23:17:44.850Z,4.33
2018-06-27T23:20:21.282Z,4.70
2018-06-27T23:22:57.611Z,5.23
2018-06-27T23:25:33.751Z,4.47
2018-06-27T23:28:09.650Z,3.93
2018-06-27T23:30:45.899Z,4.30
2018-06-27T23:33:23.107Z,4.70
2018-06-27T23:35:59.647Z,3.90
2018-06-27T23:38:35.565Z,4.53
2018-06-27T23:41:11.551Z,4.30
2018-06-27T23:43:47.808Z,4.63
2018-06-27T23:46:24.198Z,4.23
2018-06-27T23:49:00.538Z,4.17
2018-06-27T23:51:36.742Z,4.37
2018-06-27T23:54:14.065Z,4.43
2018-06-27T23:56:49.984Z,4.73
2018-06-27T23:59:26.340Z,4.33
